Friday, July 20, 2018, 12:43 PM EDT
Back to Local

KFKL, Franklin, Venango Regional Airport

Location: Franklin, PA, United States Lat: 41.383
Local Time: 12:43 PM EDT (16:43 GMT) Lon: -79.867
Time Zone: US/Eastern Elev: 1538 ft

Show me the last for .
Show Coded

Time T Td Feel RH Dir Speed Gust Alt SLP Vis Weather Sky Remarks
2018-07-20 11:56 79 61 81 54 150° 16 23 30.03 30.00 10 CLR None
2018-07-20 10:56 77 61 79 57 160° 13 - 30.04 30.01 10 CLR None
2018-07-20 09:56 75 61 78 61 160° 8 - 30.06 30.03 10 CLR None
2018-07-20 08:56 71 59 76 65 160° 8 - 30.06 30.03 10 CLR None
2018-07-20 07:56 68 58 - 70 140° 12 - 30.07 30.04 10 FEW060 6-hr Min Temp (8am): 63.0°F
6-hr Max Temp (8am): 68.0°F
2018-07-20 06:56 65 58 - 78 150° 8 - 30.06 30.03 10 BKN065 None
2018-07-20 05:56 65 57 - 75 140° 7 - 30.06 30.03 10 BKN065 None
2018-07-20 04:56 65 57 - 75 150° 9 - 30.06 30.03 10 OVC060 None
2018-07-20 03:56 64 57 - 77 150° 8 - 30.06 30.03 10 FEW060 None
2018-07-20 02:56 64 58 - 80 130° 7 - 30.06 30.04 10 CLR None
2018-07-20 01:56 64 58 - 80 130° 8 - 30.07 30.04 10 CLR 6-hr Min Temp (2am): 64.0°F
6-hr Max Temp (2am): 77.0°F
2018-07-20 00:56 64 58 - 80 130° 8 - 30.08 30.05 10 CLR 24-hr Min Temp (1am): 51.1°F
24-hr Max Temp (1am): 80.1°F
2018-07-19 23:56 66 58 - 75 120° 7 - 30.08 30.06 10 CLR None
2018-07-19 22:56 67 59 - 75 - Calm - 30.07 30.05 10 CLR None
2018-07-19 21:56 69 58 - 67 110° 3 - 30.07 30.05 10 CLR None
2018-07-19 20:56 72 58 76 61 140° 6 - 30.07 30.05 10 CLR None
2018-07-19 19:56 77 58 79 51 120° 5 - 30.07 30.05 10 CLR 6-hr Min Temp (8pm): 77.0°F
6-hr Max Temp (8pm): 80.1°F
2018-07-19 18:56 78 56 79 46 140° 9 - 30.07 30.06 10 CLR None
2018-07-19 17:56 80 58 81 46 Variable 7 - 30.08 30.07 10 CLR None
2018-07-19 16:56 80 58 81 46 110° 6 - 30.09 30.07 10 CLR None
2018-07-19 15:56 80 57 81 45 220° 5 - 30.10 30.08 10 CLR None
2018-07-19 14:56 77 56 78 48 120° 9 - 30.12 30.10 9 SCT048 None
2018-07-19 13:56 77 56 78 48 Variable 6 - 30.13 30.11 10 CLR 6-hr Min Temp (2pm): 60.1°F
6-hr Max Temp (2pm): 77.0°F
2018-07-19 12:56 75 55 77 49 160° 5 - 30.14 30.12 10 SCT043 None

Support USWX by starting your Amazon purchase here.